createdAt,value
2023-05-10T00:02:21.106Z,100
2023-05-10T01:22:32.363Z,100
2023-05-10T01:42:34.795Z,100
2023-05-10T02:02:37.173Z,99
2023-05-10T02:22:40.568Z,99
2023-05-10T02:42:43.378Z,99
2023-05-10T03:02:47.207Z,99
2023-05-10T03:12:48.811Z,100
2023-05-10T03:22:49.932Z,100
2023-05-10T03:32:51.450Z,100
2023-05-10T03:42:52.551Z,100
2023-05-10T03:53:02.695Z,100
2023-05-10T04:03:04.274Z,100
2023-05-10T04:13:05.709Z,100
2023-05-10T04:23:06.801Z,100
2023-05-10T04:33:08.250Z,100
2023-05-10T04:43:09.898Z,100
2023-05-10T04:53:11.804Z,100
2023-05-10T05:03:12.745Z,100
2023-05-10T05:13:14.543Z,100
2023-05-10T06:13:23.205Z,100
2023-05-10T06:33:26.458Z,99
2023-05-10T06:53:29.273Z,98
2023-05-10T07:13:32.059Z,97
2023-05-10T07:33:35.643Z,93
2023-05-10T07:53:38.226Z,92
2023-05-10T08:53:49.002Z,86
2023-05-10T09:13:51.707Z,85
2023-05-10T11:34:14.331Z,88
2023-05-10T11:44:16.325Z,88
2023-05-10T11:54:17.583Z,84
2023-05-10T12:04:19.196Z,84
2023-05-10T12:24:21.767Z,79
2023-05-10T12:34:23.696Z,75
2023-05-10T12:44:25.669Z,76
2023-05-10T12:54:27.536Z,74
2023-05-10T13:04:28.914Z,75
2023-05-10T13:24:31.882Z,75
2023-05-10T13:34:33.691Z,76
2023-05-10T13:44:35.085Z,76
2023-05-10T13:54:36.909Z,74
2023-05-10T14:14:39.885Z,69
2023-05-10T14:24:41.000Z,69
2023-05-10T14:34:42.467Z,64
2023-05-10T14:54:45.607Z,60
2023-05-10T15:14:48.448Z,60
2023-05-10T15:24:50.359Z,59
2023-05-10T15:34:51.812Z,66
2023-05-10T15:44:53.636Z,64
2023-05-10T15:54:55.768Z,65
2023-05-10T16:04:57.510Z,67
2023-05-10T16:14:59.059Z,68
2023-05-10T16:25:00.292Z,68
2023-05-10T16:35:02.374Z,68
2023-05-10T16:55:05.489Z,70
2023-05-10T17:05:07.164Z,70
2023-05-10T17:15:09.004Z,70
2023-05-10T17:25:11.071Z,71
2023-05-10T17:45:13.299Z,72
2023-05-10T17:55:14.673Z,74
2023-05-10T18:05:17.037Z,75
2023-05-10T18:15:17.949Z,78
2023-05-10T18:25:19.607Z,84
2023-05-10T18:35:21.027Z,87
2023-05-10T18:45:22.583Z,91
2023-05-10T18:55:23.729Z,92
2023-05-10T19:05:25.755Z,95
2023-05-10T19:15:27.416Z,97
2023-05-10T19:25:28.605Z,97
2023-05-10T19:35:30.328Z,95
2023-05-10T19:45:31.911Z,95
2023-05-10T19:55:33.843Z,94
2023-05-10T20:05:35.304Z,96
2023-05-10T20:15:36.788Z,97
2023-05-10T20:35:39.947Z,98
2023-05-10T20:45:41.391Z,98
2023-05-10T20:55:43.314Z,98
2023-05-10T21:05:44.907Z,99
2023-05-10T21:15:46.043Z,98
2023-05-10T21:25:47.233Z,100
2023-05-10T21:45:49.899Z,99
2023-05-10T21:55:50.991Z,100
2023-05-10T22:05:52.848Z,100
2023-05-10T22:15:54.061Z,99
2023-05-10T22:25:55.251Z,99
2023-05-10T22:35:56.990Z,100
2023-05-10T22:45:58.166Z,100
2023-05-10T22:55:59.186Z,100
2023-05-10T23:06:00.896Z,100
2023-05-10T23:16:02.698Z,100
2023-05-10T23:26:04.014Z,100
2023-05-10T23:36:05.743Z,99
2023-05-10T23:46:07.761Z,100
2023-05-10T23:56:09.060Z,100
